Main page
METAR-TAF:

METAR-TAF

Airports :

Lynden Pindling International Airport

Nassau, The Bahamas

latitude: 25-03N, longitude: 077-28W, elevation: 3 m

Current weather observation

The report was made 48 minutes ago, at 16:00 UTC
Wind 9 kt from the Southeast, varying between East and South
Temperature 30°C
Humidity 66%
Pressure 1017 hPa
Visibility 10 km or more
Scattered clouds at a height of 2500 ft

METAR: MYNN 231600Z 14009KT 100V180 9999 SCT025 30/23 A3002

Time: 12:48 (16:48 UTC)

Forecast

The report was made 6 hours and 33 minutes ago, at 10:15 UTC
Forecast valid from 23 at 12 UTC to 24 at 12 UTC
Wind 3 kt from the East
Visibility 10 km or more
Few clouds at a height of 2000 ft
From 23 at 2100 UTC
Wind 10 kt from the East with gusts up to 20 kt
Visibility: 8000 m
Scattered clouds at a height of 1600 ft, Cumulonimbus.
Broken clouds at a height of 4000 ft
rain showers

TAF: MYNN 231015Z 2312/2412 08003KT 9999 FEW020 FM232100 09010G20KT 8000 SHRA SCT016CB BKN040

Weather observations and forecasts of more than 4000 airports (METAR and TAF reports).

The available stations are represented by yellow and red dots on the map.

Hover mouse over dot to see the name of the station.

Then click to see weather observations and forecasts.

To change the map : click on the green buttons with a black cross to zoom in, on the green button with a dash to zoom out, or on the green arrows for adjacent maps.


METAR-TAF: